Time;durP1;ratioP1;P1;durP2;ratioP2;P2;SDS_P1;SDS_P2;PMS_P1;PMS_P2;Temp;Humidity;BMP_temperature;BMP_pressure;BME280_temperature;BME280_humidity;BME280_pressure;Samples;Min_cycle;Max_cycle;Signal;HPM_P1;HPM_P2
2022/06/22 00:02:16;;;;;;;0.05;0.05;;;20.70;79.00;;;;;;4953334;28;20037;-66
2022/06/22 00:04:51;;;;;;;0.05;0.05;;;20.70;79.10;;;;;;4954393;28;20039;-66
2022/06/22 00:07:36;;;;;;;0.10;0.10;;;20.70;79.20;;;;;;4952909;29;20035;-66
2022/06/22 00:10:37;;;;;;;0.85;0.55;;;20.70;79.50;;;;;;4935893;29;20492;-66
2022/06/22 00:13:04;;;;;;;;;;;20.60;79.80;;;;;;4954405;28;20030;-66
2022/06/22 00:15:38;;;;;;;0.00;0.00;;;20.50;80.10;;;;;;4969071;28;20325;-66
2022/06/22 00:18:24;;;;;;;0.00;0.00;;;20.50;80.40;;;;;;4952893;28;20031;-66
2022/06/22 00:20:54;;;;;;;0.10;0.10;;;20.40;80.60;;;;;;4952279;28;20035;-66
2022/06/22 00:23:42;;;;;;;0.00;0.00;;;20.40;80.70;;;;;;4952570;29;20035;-66
2022/06/22 00:26:23;;;;;;;0.05;0.00;;;20.40;80.90;;;;;;4952768;29;20480;-66
2022/06/22 00:29:09;;;;;;;0.10;0.10;;;20.40;80.90;;;;;;4952298;29;20449;-66
2022/06/22 00:31:43;;;;;;;0.00;0.00;;;20.40;80.90;;;;;;4952331;28;20066;-66
2022/06/22 00:34:09;;;;;;;0.00;0.00;;;20.40;81.20;;;;;;4952460;29;20031;-66
2022/06/22 00:37:03;;;;;;;0.00;0.00;;;20.40;81.30;;;;;;4954097;28;20522;-66
2022/06/22 00:39:28;;;;;;;0.25;0.10;;;20.40;81.40;;;;;;4953053;28;20036;-66
2022/06/22 00:42:26;;;;;;;0.00;0.00;;;20.20;81.80;;;;;;4953809;28;20698;-66
2022/06/22 00:45:23;;;;;;;0.17;0.17;;;20.30;81.90;;;;;;4941829;28;20042;-66
2022/06/22 00:48:18;;;;;;;0.00;0.00;;;20.20;82.00;;;;;;4952808;29;20110;-66
2022/06/22 00:51:00;;;;;;;0.10;0.10;;;20.10;82.10;;;;;;4952784;28;20031;-66
2022/06/22 00:53:45;;;;;;;0.10;0.03;;;20.10;82.40;;;;;;4952175;29;20027;-66
2022/06/22 00:56:16;;;;;;;0.00;0.00;;;20.00;82.40;;;;;;4936412;29;20034;-66
2022/06/22 00:58:55;;;;;;;0.13;0.08;;;20.00;82.90;;;;;;4952711;28;20074;-66
2022/06/22 01:01:46;;;;;;;0.03;0.00;;;20.00;82.80;;;;;;4952062;28;20027;-66
2022/06/22 01:04:43;;;;;;;0.17;0.17;;;19.90;82.90;;;;;;4950331;28;20091;-66
2022/06/22 01:07:43;;;;;;;0.10;0.10;;;19.80;83.20;;;;;;4962867;28;20023;-65
2022/06/22 01:10:48;;;;;;;0.00;0.00;;;19.80;83.40;;;;;;4952724;28;20491;-65
2022/06/22 01:13:24;;;;;;;0.25;0.20;;;19.80;83.50;;;;;;4932393;29;20082;-66
2022/06/22 01:16:05;;;;;;;0.10;0.10;;;19.60;84.00;;;;;;4944535;29;20138;-66
2022/06/22 01:18:37;;;;;;;;;;;19.70;84.20;;;;;;4952793;29;20046;-66
2022/06/22 01:21:09;;;;;;;0.03;0.03;;;19.60;84.30;;;;;;4982119;28;19921;-66
2022/06/22 01:23:55;;;;;;;0.00;0.00;;;19.70;84.10;;;;;;4952614;29;20038;-66
2022/06/22 01:26:33;;;;;;;0.10;0.10;;;19.70;84.00;;;;;;4951727;29;20031;-65
2022/06/22 01:29:06;;;;;;;0.00;0.00;;;19.70;84.00;;;;;;4951414;28;20020;-66
2022/06/22 01:31:34;;;;;;;0.85;0.52;;;19.70;84.30;;;;;;4952769;28;20027;-66
2022/06/22 01:34:02;;;;;;;0.00;0.00;;;19.70;84.30;;;;;;4952798;29;20031;-66
2022/06/22 01:36:32;;;;;;;0.00;0.00;;;19.60;84.70;;;;;;4951397;29;20488;-66
2022/06/22 01:38:59;;;;;;;0.00;0.00;;;19.50;85.10;;;;;;4951263;28;20036;-66
2022/06/22 01:41:39;;;;;;;0.03;0.03;;;19.60;84.80;;;;;;4952254;28;20295;-65
2022/06/22 01:44:33;;;;;;;0.00;0.00;;;19.50;84.90;;;;;;4951690;29;20036;-66
2022/06/22 01:47:11;;;;;;;0.00;0.00;;;19.50;85.50;;;;;;4952281;29;20031;-65
2022/06/22 01:49:45;;;;;;;0.10;0.10;;;19.50;85.40;;;;;;4952245;28;20094;-66
2022/06/22 01:52:26;;;;;;;0.00;0.00;;;19.40;85.30;;;;;;4951159;29;20042;-65
2022/06/22 01:55:01;;;;;;;0.00;0.00;;;19.50;85.40;;;;;;4951327;29;20059;-66
2022/06/22 01:57:36;;;;;;;0.45;0.45;;;19.50;85.30;;;;;;4952568;29;20036;-65
2022/06/22 02:00:21;;;;;;;6.65;0.50;;;19.20;86.20;;;;;;4951150;28;20036;-65
2022/06/22 02:03:24;;;;;;;0.00;0.00;;;19.20;86.10;;;;;;4952365;29;20387;-65
2022/06/22 02:07:44;;;;;;;0.00;0.00;;;19.40;85.70;;;;;;4950857;29;20122;-65
2022/06/22 02:08:59;;;;;;;0.08;0.08;;;19.40;85.80;;;;;;4950800;28;20066;-65
2022/06/22 02:11:30;;;;;;;0.00;0.00;;;19.40;86.10;;;;;;4935528;29;20415;-65
2022/06/22 02:14:25;;;;;;;0.10;0.10;;;19.40;86.50;;;;;;4935717;29;20440;-65
2022/06/22 02:17:02;;;;;;;0.00;0.00;;;19.40;86.30;;;;;;4931576;29;20044;-65
2022/06/22 02:19:30;;;;;;;0.00;0.00;;;19.40;86.10;;;;;;4963618;28;20481;-65
2022/06/22 02:21:58;;;;;;;0.45;0.45;;;19.40;85.90;;;;;;4931681;29;20064;-65
2022/06/22 02:24:40;;;;;;;0.00;0.00;;;19.50;85.60;;;;;;4933060;29;20034;-65
2022/06/22 02:27:18;;;;;;;0.20;0.20;;;19.50;85.80;;;;;;4933255;29;20056;-65
2022/06/22 02:29:47;;;;;;;0.00;0.00;;;19.40;85.90;;;;;;4932744;29;20047;-66
2022/06/22 02:32:24;;;;;;;0.20;0.10;;;19.40;86.00;;;;;;4933098;29;20031;-65
2022/06/22 02:34:53;;;;;;;0.00;0.00;;;19.40;86.30;;;;;;4936847;29;20127;-66
2022/06/22 02:37:24;;;;;;;0.00;0.00;;;19.30;86.40;;;;;;4935514;29;20556;-66
2022/06/22 02:40:08;;;;;;;0.03;0.03;;;19.20;86.80;;;;;;4934964;29;20048;-66
2022/06/22 02:45:18;;;;;;;0.00;0.00;;;19.20;87.30;;;;;;4935704;29;20027;-66
2022/06/22 02:47:56;;;;;;;1.02;0.17;;;19.10;87.70;;;;;;4936338;29;20053;-66
2022/06/22 02:50:47;;;;;;;0.00;0.00;;;19.10;87.70;;;;;;4936133;29;20404;-66
2022/06/22 02:53:35;;;;;;;0.00;0.00;;;19.00;88.10;;;;;;4935093;29;20039;-66
2022/06/22 02:56:11;;;;;;;0.10;0.10;;;19.00;88.40;;;;;;4935351;29;20063;-65
2022/06/22 02:58:37;;;;;;;0.80;0.43;;;18.90;88.40;;;;;;4935883;29;20063;-66
2022/06/22 03:01:12;;;;;;;0.95;0.63;;;18.90;88.70;;;;;;4934800;29;20031;-65
2022/06/22 03:03:41;;;;;;;0.73;0.73;;;18.90;88.90;;;;;;4919608;29;20058;-65
2022/06/22 03:06:11;;;;;;;0.10;0.10;;;18.80;89.30;;;;;;4935334;29;20042;-66
2022/06/22 03:08:39;;;;;;;0.10;0.10;;;18.80;89.30;;;;;;4935871;29;20554;-66
2022/06/22 03:11:08;;;;;;;1.75;1.00;;;18.60;90.00;;;;;;4934756;29;20484;-65
2022/06/22 03:14:03;;;;;;;0.10;0.10;;;18.60;90.20;;;;;;4934691;29;20024;-66
2022/06/22 03:16:37;;;;;;;1.15;0.55;;;18.30;90.70;;;;;;4953705;29;20023;-65
2022/06/22 03:19:13;;;;;;;0.10;0.10;;;18.40;90.80;;;;;;4953263;29;20427;-65
2022/06/22 03:21:41;;;;;;;0.00;0.00;;;18.50;90.50;;;;;;4953905;29;20027;-65
2022/06/22 03:24:45;;;;;;;0.98;0.30;;;18.50;90.50;;;;;;4970010;28;20055;-65
2022/06/22 03:27:20;;;;;;;1.38;0.80;;;18.50;90.60;;;;;;4955041;28;20031;-65
2022/06/22 03:29:53;;;;;;;0.10;0.10;;;18.50;90.40;;;;;;4953582;28;20031;-66
2022/06/22 03:32:36;;;;;;;2.05;0.43;;;18.50;90.50;;;;;;4953769;28;20042;-66
2022/06/22 03:35:34;;;;;;;0.00;0.00;;;18.50;90.60;;;;;;4953682;29;20039;-65
2022/06/22 03:38:09;;;;;;;0.10;0.10;;;18.40;90.80;;;;;;4951787;29;20522;-65
2022/06/22 03:40:53;;;;;;;0.00;0.00;;;18.50;90.60;;;;;;4952845;28;20563;-65
2022/06/22 03:43:33;;;;;;;0.38;0.28;;;18.40;90.80;;;;;;4954486;28;20524;-66
2022/06/22 03:46:10;;;;;;;0.00;0.00;;;18.40;90.80;;;;;;4953622;29;20027;-66
2022/06/22 03:48:43;;;;;;;0.00;0.00;;;18.40;90.90;;;;;;4953317;29;20476;-65
2022/06/22 03:51:15;;;;;;;0.57;0.55;;;18.50;90.80;;;;;;4953199;28;20041;-66
2022/06/22 03:53:46;;;;;;;1.45;1.23;;;18.50;90.70;;;;;;4953272;29;20027;-65
2022/06/22 03:56:20;;;;;;;0.45;0.43;;;18.60;90.50;;;;;;4951858;28;20035;-63
2022/06/22 03:58:50;;;;;;;0.05;0.05;;;18.70;90.70;;;;;;4952418;29;20042;-65
2022/06/22 04:01:18;;;;;;;0.03;0.03;;;18.90;90.30;;;;;;4953816;28;20036;-63
2022/06/22 04:03:44;;;;;;;0.05;0.05;;;19.00;90.00;;;;;;4942562;28;20575;-63
2022/06/22 04:06:26;;;;;;;0.00;0.00;;;19.10;89.80;;;;;;4986876;28;20424;-63
2022/06/22 04:08:53;;;;;;;0.00;0.00;;;19.20;89.50;;;;;;4952341;29;20031;-63
2022/06/22 04:11:26;;;;;;;0.00;0.00;;;19.30;89.50;;;;;;4952555;28;20023;-63
2022/06/22 04:14:23;;;;;;;0.05;0.05;;;19.40;88.90;;;;;;4952873;29;20040;-63
2022/06/22 04:16:59;;;;;;;0.10;0.08;;;19.40;88.90;;;;;;4923398;29;20086;-64
2022/06/22 04:19:37;;;;;;;0.38;0.20;;;19.30;89.40;;;;;;4964845;28;20488;-64
2022/06/22 04:22:20;;;;;;;0.20;0.20;;;19.30;89.30;;;;;;4934267;29;20119;-63
2022/06/22 04:25:05;;;;;;;0.00;0.00;;;19.40;89.20;;;;;;4934296;29;20024;-64
2022/06/22 04:27:39;;;;;;;0.00;0.00;;;19.30;89.20;;;;;;4948354;29;20114;-64
2022/06/22 04:30:19;;;;;;;0.20;0.10;;;19.20;90.10;;;;;;4948317;28;20038;-63
2022/06/22 04:32:58;;;;;;;1.98;0.88;;;19.00;90.20;;;;;;4948480;29;20120;-63
2022/06/22 04:35:59;;;;;;;0.22;0.20;;;19.10;90.00;;;;;;4932847;29;20496;-64
2022/06/22 04:39:00;;;;;;;0.00;0.00;;;19.30;89.80;;;;;;4946480;28;20078;-63
2022/06/22 04:41:37;;;;;;;0.40;0.40;;;19.30;90.20;;;;;;4952650;29;20058;-63
2022/06/22 04:44:18;;;;;;;0.10;0.10;;;19.40;90.10;;;;;;4983894;28;20090;-63
2022/06/22 04:46:58;;;;;;;0.52;0.40;;;19.50;89.60;;;;;;4983680;28;20038;-63
2022/06/22 04:49:31;;;;;;;0.00;0.00;;;19.50;89.20;;;;;;4983007;28;20031;-64
2022/06/22 04:52:21;;;;;;;0.63;0.32;;;19.20;90.00;;;;;;4983065;28;20488;-63
2022/06/22 04:54:53;;;;;;;0.55;0.40;;;19.20;90.10;;;;;;4933514;29;20032;-63
2022/06/22 04:57:37;;;;;;;0.52;0.52;;;19.00;90.50;;;;;;4981859;28;20110;-63
2022/06/22 05:00:12;;;;;;;0.00;0.00;;;18.70;90.70;;;;;;4952290;28;20614;-63
2022/06/22 05:02:41;;;;;;;0.00;0.00;;;18.70;91.30;;;;;;4953083;29;20023;-63
2022/06/22 05:05:29;;;;;;;6.70;1.25;;;18.50;91.50;;;;;;4983243;28;20054;-64
2022/06/22 05:08:19;;;;;;;0.20;0.20;;;18.70;91.50;;;;;;4953268;29;20031;-63
2022/06/22 05:11:04;;;;;;;0.10;0.10;;;18.90;91.00;;;;;;4979776;28;20027;-63
2022/06/22 05:13:42;;;;;;;1.02;0.50;;;19.10;91.00;;;;;;4982472;28;20495;-68
2022/06/22 05:16:15;;;;;;;0.13;0.13;;;19.30;90.20;;;;;;4981448;28;20035;-67
2022/06/22 05:18:43;;;;;;;0.13;0.10;;;19.30;90.10;;;;;;4950222;29;20053;-67
2022/06/22 05:21:28;;;;;;;0.30;0.30;;;19.40;90.20;;;;;;4950348;28;20027;-66
2022/06/22 05:23:57;;;;;;;0.00;0.00;;;19.60;90.20;;;;;;4951778;29;20047;-67
2022/06/22 05:26:26;;;;;;;0.00;0.00;;;19.60;89.90;;;;;;4950648;29;20030;-67
2022/06/22 05:29:04;;;;;;;0.35;0.32;;;19.70;89.10;;;;;;4952375;29;20030;-68
2022/06/22 05:31:38;;;;;;;0.00;0.00;;;19.70;89.10;;;;;;4952481;28;20046;-67
2022/06/22 05:34:19;;;;;;;0.00;0.00;;;19.80;88.80;;;;;;4951130;28;20111;-67
2022/06/22 05:36:50;;;;;;;5.60;0.82;;;19.90;89.20;;;;;;4952537;28;20038;-67
2022/06/22 05:39:16;;;;;;;2.60;0.65;;;19.90;89.10;;;;;;4951089;28;20043;-67
2022/06/22 05:41:46;;;;;;;0.00;0.00;;;19.90;89.80;;;;;;4951135;29;20035;-67
2022/06/22 05:44:17;;;;;;;0.05;0.05;;;20.00;89.10;;;;;;4951304;29;20039;-68
2022/06/22 05:46:56;;;;;;;0.00;0.00;;;19.90;89.40;;;;;;4951179;29;20232;-67
2022/06/22 05:49:31;;;;;;;0.00;0.00;;;19.90;89.10;;;;;;4952131;28;20403;-67
2022/06/22 05:52:30;;;;;;;0.10;0.10;;;19.70;89.10;;;;;;4951241;29;20039;-68
2022/06/22 05:55:12;;;;;;;2.65;0.52;;;19.40;90.50;;;;;;4936921;29;20080;-68
2022/06/22 05:57:55;;;;;;;0.00;0.00;;;19.50;90.60;;;;;;4951373;29;20035;-67
2022/06/22 06:00:28;;;;;;;0.00;0.00;;;19.80;90.30;;;;;;4951613;28;20042;-67
2022/06/22 06:03:07;;;;;;;0.00;0.00;;;19.90;90.10;;;;;;4935187;29;20035;-67
2022/06/22 06:05:54;;;;;;;0.30;0.30;;;20.00;89.70;;;;;;4966916;28;20061;-67
2022/06/22 06:08:45;;;;;;;0.52;0.52;;;20.00;90.20;;;;;;4969949;28;20023;-68
2022/06/22 06:11:22;;;;;;;1.00;0.65;;;20.00;90.30;;;;;;4956474;28;20067;-68
2022/06/22 06:14:13;;;;;;;0.22;0.08;;;19.90;90.20;;;;;;4986673;28;20042;-68
2022/06/22 06:16:49;;;;;;;2.03;1.85;;;20.10;89.80;;;;;;4954488;29;20107;-68
2022/06/22 06:19:21;;;;;;;2.63;0.88;;;20.20;89.80;;;;;;4970168;28;20489;-68
2022/06/22 06:21:53;;;;;;;0.05;0.05;;;20.20;90.00;;;;;;4970523;28;20094;-67
2022/06/22 06:27:34;;;;;;;15.50;0.80;;;20.20;90.00;;;;;;4970509;28;20058;-67
2022/06/22 06:27:38;;;;;;;0.00;0.00;;;20.10;87.90;;;;;;4967487;28;20031;-68
2022/06/22 06:30:50;;;;;;;0.00;0.00;;;20.10;89.40;;;;;;4955684;28;20031;-68
2022/06/22 06:33:38;;;;;;;0.00;0.00;;;20.30;89.60;;;;;;4949649;28;20086;-67
2022/06/22 06:36:26;;;;;;;0.00;0.00;;;20.50;88.00;;;;;;4986770;28;20368;-67
2022/06/22 06:39:02;;;;;;;0.10;0.10;;;20.40;87.60;;;;;;4955584;29;20035;-67
2022/06/22 06:41:40;;;;;;;0.05;0.05;;;20.50;88.20;;;;;;4955652;28;20031;-67
2022/06/22 06:44:18;;;;;;;0.00;0.00;;;20.60;87.40;;;;;;4970489;28;20038;-68
2022/06/22 06:46:54;;;;;;;0.00;0.00;;;20.90;86.40;;;;;;4969366;28;20475;-68
2022/06/22 06:49:30;;;;;;;0.00;0.00;;;21.00;85.90;;;;;;4955442;28;20039;-67
2022/06/22 06:52:04;;;;;;;5.07;0.95;;;21.00;85.80;;;;;;4970064;28;20031;-67
2022/06/22 06:54:48;;;;;;;0.45;0.45;;;20.70;85.70;;;;;;4970469;28;20047;-67
2022/06/22 06:57:20;;;;;;;0.00;0.00;;;21.00;86.20;;;;;;4969738;28;20107;-68
2022/06/22 06:59:53;;;;;;;0.10;0.10;;;21.30;85.70;;;;;;4955546;28;20035;-68
2022/06/22 07:02:33;;;;;;;1.17;0.80;;;21.50;84.80;;;;;;4955254;29;20510;-67
2022/06/22 07:05:03;;;;;;;0.00;0.00;;;21.20;84.70;;;;;;4954112;29;20035;-67
2022/06/22 07:08:12;;;;;;;0.00;0.00;;;21.40;85.20;;;;;;4969716;28;20476;-67
2022/06/22 07:10:55;;;;;;;35.95;2.80;;;21.50;84.20;;;;;;4967514;28;20031;-67
2022/06/22 07:13:53;;;;;;;0.45;0.45;;;21.40;84.00;;;;;;4968553;28;20031;-67
2022/06/22 07:16:23;;;;;;;0.00;0.00;;;21.70;83.60;;;;;;4985377;28;20043;-67
2022/06/22 07:19:34;;;;;;;0.00;0.00;;;21.70;82.60;;;;;;4954401;28;20035;-68
2022/06/22 07:22:25;;;;;;;0.00;0.00;;;21.60;83.20;;;;;;4948595;29;20377;-67
2022/06/22 07:25:51;;;;;;;0.00;0.00;;;21.50;83.50;;;;;;4949179;29;20036;-68
2022/06/22 07:28:28;;;;;;;0.30;0.13;;;21.90;82.00;;;;;;4932952;29;20035;-67
2022/06/22 07:31:27;;;;;;;2.63;0.17;;;22.20;80.20;;;;;;4948624;29;20027;-67
2022/06/22 07:34:11;;;;;;;0.00;0.00;;;22.30;79.60;;;;;;4948014;29;20040;-68
2022/06/22 07:36:54;;;;;;;0.75;0.52;;;22.30;80.50;;;;;;4933044;29;20046;-68
2022/06/22 07:39:38;;;;;;;0.38;0.13;;;22.70;80.40;;;;;;4948027;29;20050;-68
2022/06/22 07:42:04;;;;;;;0.80;0.75;;;22.60;80.40;;;;;;4932918;29;20075;-68
2022/06/22 07:44:34;;;;;;;0.10;0.03;;;22.60;80.00;;;;;;4948856;29;20059;-68
2022/06/22 07:47:40;;;;;;;0.10;0.10;;;23.10;78.70;;;;;;4948694;29;20039;-68
2022/06/22 07:50:24;;;;;;;0.52;0.35;;;23.30;78.80;;;;;;4932571;29;20043;-68
2022/06/22 07:53:02;;;;;;;0.13;0.13;;;23.60;77.40;;;;;;4966788;28;20047;-68
2022/06/22 07:55:39;;;;;;;0.03;0.03;;;23.70;77.90;;;;;;4968656;28;20045;-68
2022/06/22 07:58:27;;;;;;;0.05;0.05;;;23.70;76.90;;;;;;4954374;29;20041;-68
2022/06/22 08:01:09;;;;;;;0.43;0.30;;;23.80;76.90;;;;;;4967918;28;20046;-68
2022/06/22 08:03:45;;;;;;;0.00;0.00;;;23.70;76.70;;;;;;4954148;29;20035;-68
2022/06/22 08:06:49;;;;;;;0.00;0.00;;;23.90;76.20;;;;;;4969061;28;20031;-68
2022/06/22 08:09:22;;;;;;;0.00;0.00;;;23.90;76.20;;;;;;4968700;28;20042;-68
2022/06/22 08:11:59;;;;;;;0.22;0.20;;;23.60;76.70;;;;;;4968468;28;20523;-68
2022/06/22 08:14:43;;;;;;;1.75;0.65;;;23.70;73.40;;;;;;4968822;28;20031;-68
2022/06/22 08:17:40;;;;;;;0.98;0.40;;;23.80;74.40;;;;;;4954261;29;20035;-68
2022/06/22 08:20:08;;;;;;;0.10;0.10;;;24.00;76.20;;;;;;4968061;28;20031;-67
2022/06/22 08:22:34;;;;;;;4.55;1.52;;;24.00;76.90;;;;;;4954174;29;20083;-68
2022/06/22 08:25:03;;;;;;;0.32;0.32;;;23.80;78.10;;;;;;4968575;28;20036;-67
2022/06/22 08:27:29;;;;;;;0.08;0.08;;;23.90;78.70;;;;;;4968357;28;20034;-68
2022/06/22 08:29:57;;;;;;;0.40;0.30;;;23.80;79.50;;;;;;4952663;28;20031;-68
2022/06/22 08:32:33;;;;;;;0.08;0.08;;;24.00;78.30;;;;;;4968485;28;20027;-68
2022/06/22 08:35:27;;;;;;;0.38;0.30;;;23.80;78.90;;;;;;4968510;28;20031;-68
2022/06/22 08:38:16;;;;;;;0.10;0.10;;;23.60;79.30;;;;;;4966883;28;20472;-68
2022/06/22 08:41:09;;;;;;;0.22;0.20;;;24.20;76.20;;;;;;4997857;23;20069;-73
2022/06/22 08:44:20;;;;;;;3.90;0.40;;;23.80;76.10;;;;;;5026570;28;20221;-73
2022/06/22 08:47:13;;;;;;;0.00;0.00;;;24.10;75.70;;;;;;5011673;28;20502;-73
2022/06/22 08:49:53;;;;;;;0.20;0.20;;;24.10;75.50;;;;;;5011417;28;20068;-72
2022/06/22 08:52:47;;;;;;;3.20;0.77;;;24.10;76.50;;;;;;5011426;28;20470;-73
2022/06/22 08:55:24;;;;;;;0.28;0.25;;;24.20;76.40;;;;;;5010742;28;20030;-73
2022/06/22 08:58:10;;;;;;;0.52;0.45;;;23.80;76.80;;;;;;5011674;28;20605;-74
2022/06/22 09:00:57;;;;;;;0.10;0.10;;;24.00;76.20;;;;;;5011197;28;20045;-73
2022/06/22 09:03:58;;;;;;;1.10;0.80;;;24.20;76.10;;;;;;5009860;28;20434;-73
2022/06/22 09:07:09;;;;;;;0.20;0.20;;;24.40;75.60;;;;;;5009999;28;20030;-73
2022/06/22 09:10:03;;;;;;;0.35;0.35;;;24.20;75.80;;;;;;5010871;28;20030;-72
2022/06/22 09:12:59;;;;;;;0.30;0.30;;;24.10;75.70;;;;;;5009882;28;20030;-73
2022/06/22 09:16:23;;;;;;;0.10;0.10;;;24.20;75.40;;;;;;5011457;28;20030;-72
2022/06/22 09:19:21;;;;;;;0.35;0.35;;;24.50;75.50;;;;;;5009604;28;20405;-73
2022/06/22 09:22:25;;;;;;;0.13;0.10;;;24.60;75.00;;;;;;5009440;28;20343;-73
2022/06/22 09:25:04;;;;;;;0.47;0.47;;;24.40;74.20;;;;;;5009915;28;20470;-72
2022/06/22 09:27:45;;;;;;;0.17;0.17;;;24.30;74.60;;;;;;5009673;28;20033;-73
2022/06/22 09:30:45;;;;;;;0.65;0.55;;;24.30;73.00;;;;;;5010451;28;20036;-73
2022/06/22 09:34:03;;;;;;;0.00;0.00;;;24.50;74.60;;;;;;5010906;28;20040;-72
2022/06/22 09:36:54;;;;;;;0.10;0.10;;;24.50;73.40;;;;;;5011290;28;20048;-73
2022/06/22 09:40:12;;;;;;;0.00;0.00;;;24.70;72.40;;;;;;5010583;28;20091;-73
2022/06/22 09:43:30;;;;;;;0.10;0.10;;;24.80;72.00;;;;;;5011281;28;20044;-73
2022/06/22 09:46:20;;;;;;;0.35;0.30;;;24.80;72.60;;;;;;5010961;28;20087;-72
2022/06/22 09:49:21;;;;;;;0.55;0.55;;;24.90;72.20;;;;;;5009313;28;20037;-73
2022/06/22 09:52:13;;;;;;;0.77;0.77;;;24.50;73.00;;;;;;5009449;28;20536;-73
2022/06/22 09:58:00;;;;;;;0.77;0.65;;;24.80;70.10;;;;;;5010493;28;20116;-72
2022/06/22 10:01:08;;;;;;;0.00;0.00;;;24.50;70.50;;;;;;5010164;28;20037;-72
2022/06/22 10:04:00;;;;;;;0.75;0.73;;;24.50;70.60;;;;;;5010316;28;20037;-72
2022/06/22 10:06:52;;;;;;;4.38;1.65;;;24.60;70.40;;;;;;5010867;28;20037;-72
2022/06/22 10:09:21;;;;;;;0.22;0.22;;;24.60;69.70;;;;;;5010209;28;20049;-72
2022/06/22 10:12:57;;;;;;;0.32;0.32;;;24.80;69.70;;;;;;5010432;28;20060;-73
2022/06/22 10:16:07;;;;;;;0.28;0.28;;;24.90;69.80;;;;;;5010350;28;20038;-72
2022/06/22 10:19:09;;;;;;;3.40;1.55;;;24.80;69.70;;;;;;5005173;28;20034;-72
2022/06/22 10:22:23;;;;;;;6.95;2.63;;;24.80;70.00;;;;;;5009202;28;20053;-73
2022/06/22 10:25:03;;;;;;;3.83;0.77;;;24.80;70.30;;;;;;5010167;28;20490;-71
2022/06/22 10:28:10;;;;;;;0.00;0.00;;;24.50;71.50;;;;;;5009334;28;20076;-71
2022/06/22 10:31:24;;;;;;;0.00;0.00;;;24.60;72.40;;;;;;5008816;28;20029;-72
2022/06/22 10:35:00;;;;;;;0.00;0.00;;;24.70;71.40;;;;;;4997967;28;20454;-73
2022/06/22 10:38:15;;;;;;;0.85;0.50;;;24.90;71.00;;;;;;5008636;28;20053;-73
2022/06/22 10:47:23;;;;;;;0.22;0.15;;;25.10;72.10;;;;;;5010272;28;20129;-73
2022/06/22 10:50:26;;;;;;;0.20;0.10;;;24.90;71.60;;;;;;5009986;28;20041;-72
2022/06/22 10:53:18;;;;;;;1.95;0.45;;;24.90;71.20;;;;;;5009641;28;20038;-72
2022/06/22 10:56:11;;;;;;;0.10;0.10;;;24.50;72.00;;;;;;5014020;28;20113;-71
2022/06/22 10:58:52;;;;;;;0.10;0.10;;;24.60;72.40;;;;;;5013383;28;20136;-72
2022/06/22 11:01:37;;;;;;;;;;;24.60;74.30;;;;;;5013777;28;20029;-72
2022/06/22 11:04:43;;;;;;;0.00;0.00;;;24.50;75.20;;;;;;5013478;28;20000;-71
2022/06/22 11:07:14;;;;;;;0.32;0.32;;;24.50;75.20;;;;;;5012019;28;20446;-72
2022/06/22 11:09:47;;;;;;;0.10;0.10;;;24.40;76.00;;;;;;5013165;28;20034;-71
2022/06/22 11:12:33;;;;;;;1.13;0.95;;;24.10;76.50;;;;;;5011757;28;20674;-71
2022/06/22 11:15:33;;;;;;;0.82;0.47;;;24.30;77.50;;;;;;5012299;28;20395;-73
2022/06/22 11:18:20;;;;;;;2.15;1.42;;;24.50;79.20;;;;;;5013724;28;20030;-72
2022/06/22 11:20:45;;;;;;;0.10;0.10;;;24.50;77.90;;;;;;5011845;28;20450;-73
2022/06/22 11:23:17;;;;;;;0.80;0.35;;;24.30;80.80;;;;;;5012929;28;20069;-73
2022/06/22 11:32:52;;;;;;;0.00;0.00;;;24.30;83.50;;;;;;5012766;28;20124;-71
2022/06/22 11:36:11;;;;;;;0.25;0.20;;;24.10;84.00;;;;;;5028007;28;20040;-70
2022/06/22 11:39:08;;;;;;;0.88;0.77;;;24.20;83.70;;;;;;5010049;28;20121;-71
2022/06/22 11:42:07;;;;;;;0.00;0.00;;;24.00;84.80;;;;;;4996401;28;20049;-70
2022/06/22 11:48:03;;;;;;;1.10;0.65;;;24.10;85.10;;;;;;5011339;28;20105;-71
2022/06/22 11:50:57;;;;;;;0.35;0.35;;;24.00;85.40;;;;;;5011048;28;20041;-71
2022/06/22 11:53:47;;;;;;;1.55;1.35;;;24.10;85.90;;;;;;4996687;28;20682;-72
2022/06/22 11:56:53;;;;;;;0.28;0.20;;;24.10;86.00;;;;;;5012640;28;20423;-73
2022/06/22 12:00:10;;;;;;;1.10;0.73;;;24.00;85.00;;;;;;5011095;28;20430;-73
2022/06/22 12:03:04;;;;;;;0.17;0.17;;;24.20;83.20;;;;;;5012988;28;20447;-72
2022/06/22 12:05:50;;;;;;;1.52;0.77;;;24.30;83.60;;;;;;5011334;28;20537;-72
2022/06/22 12:08:42;;;;;;;0.05;0.05;;;24.50;81.70;;;;;;5012407;28;20124;-73
2022/06/22 12:11:36;;;;;;;0.60;0.45;;;24.30;81.30;;;;;;5011285;28;20025;-73
2022/06/22 12:17:53;;;;;;;0.30;0.22;;;24.50;81.20;;;;;;5011594;28;20053;-72
2022/06/22 12:20:43;;;;;;;0.20;0.20;;;24.20;81.30;;;;;;5011586;28;20386;-72
2022/06/22 12:23:33;;;;;;;0.38;0.30;;;24.30;81.10;;;;;;5012292;28;20037;-71
2022/06/22 12:26:36;;;;;;;0.00;0.00;;;24.50;81.40;;;;;;5010884;28;20640;-72
2022/06/22 12:29:35;;;;;;;0.52;0.47;;;24.80;81.20;;;;;;5012053;28;20030;-73
2022/06/22 12:32:30;;;;;;;0.15;0.15;;;24.30;78.70;;;;;;5011756;28;20065;-73
2022/06/22 12:35:20;;;;;;;0.08;0.08;;;24.60;78.20;;;;;;5010411;28;20410;-72
2022/06/22 12:37:56;;;;;;;0.65;0.13;;;24.70;78.80;;;;;;5012157;28;20029;-72
2022/06/22 12:40:25;;;;;;;7.03;0.75;;;24.80;79.20;;;;;;5009922;28;20045;-73
2022/06/22 12:43:13;;;;;;;0.10;0.10;;;25.10;78.40;;;;;;5011742;28;20470;-72
2022/06/22 12:45:52;;;;;;;0.65;0.32;;;24.70;78.30;;;;;;5011330;28;20065;-73
2022/06/22 12:48:40;;;;;;;0.17;0.17;;;24.50;78.30;;;;;;5010554;28;20026;-72
2022/06/22 12:51:32;;;;;;;0.75;0.47;;;24.90;77.20;;;;;;5011527;28;20459;-73
2022/06/22 12:54:26;;;;;;;0.30;0.30;;;25.00;76.90;;;;;;5012538;28;20033;-73
2022/06/22 12:57:34;;;;;;;0.15;0.15;;;24.90;77.60;;;;;;4992002;28;20037;-73
2022/06/22 13:00:16;;;;;;;0.17;0.17;;;25.20;77.60;;;;;;5001492;28;20273;-73
2022/06/22 13:02:44;;;;;;;14.50;0.52;;;25.20;77.80;;;;;;5010598;28;20474;-73
2022/06/22 13:05:21;;;;;;;0.40;0.32;;;25.50;77.20;;;;;;5010002;28;20040;-73
2022/06/22 13:08:01;;;;;;;0.52;0.50;;;25.20;78.60;;;;;;5010481;28;20026;-71
2022/06/22 13:10:36;;;;;;;0.40;0.40;;;25.20;79.40;;;;;;5011231;28;20037;-73
2022/06/22 13:13:34;;;;;;;0.10;0.10;;;24.90;80.90;;;;;;5010118;28;20049;-72
2022/06/22 13:16:14;;;;;;;0.10;0.10;;;24.80;82.60;;;;;;5010075;28;20022;-74
2022/06/22 13:19:02;;;;;;;0.08;0.08;;;24.20;85.90;;;;;;5009594;28;20033;-73
2022/06/22 13:21:54;;;;;;;0.00;0.00;;;24.30;87.20;;;;;;5010978;28;20521;-74
2022/06/22 13:24:26;;;;;;;3.70;1.42;;;24.50;87.40;;;;;;5010175;28;20533;-73
2022/06/22 13:27:32;;;;;;;0.00;0.00;;;24.50;87.90;;;;;;5010638;28;20542;-73
2022/06/22 13:30:07;;;;;;;0.22;0.20;;;24.00;90.00;;;;;;4994558;28;20033;-73
2022/06/22 13:32:34;;;;;;;2.45;0.45;;;24.30;90.50;;;;;;5011182;28;20033;-74
2022/06/22 13:35:08;;;;;;;1.35;0.45;;;24.30;91.10;;;;;;5009893;28;20029;-73
2022/06/22 13:37:40;;;;;;;0.63;0.57;;;24.20;91.70;;;;;;5009562;28;20026;-73
2022/06/22 13:40:35;;;;;;;0.20;0.20;;;24.20;92.00;;;;;;5009971;28;20038;-73
2022/06/22 13:43:41;;;;;;;0.00;0.00;;;24.00;92.70;;;;;;5009639;28;20056;-72
2022/06/22 13:46:41;;;;;;;0.13;0.13;;;23.80;93.00;;;;;;5010604;28;20048;-73
2022/06/22 13:49:31;;;;;;;0.43;0.43;;;23.40;94.30;;;;;;5010245;28;20069;-73
2022/06/22 13:52:39;;;;;;;0.00;0.00;;;23.50;94.90;;;;;;5009417;28;20437;-73
2022/06/22 13:55:24;;;;;;;1.15;1.05;;;23.40;95.90;;;;;;5005394;28;20305;-73
2022/06/22 13:58:10;;;;;;;0.85;0.60;;;23.30;96.70;;;;;;5010723;28;20041;-73
2022/06/22 14:00:55;;;;;;;7.78;2.25;;;23.00;98.00;;;;;;5009313;28;20022;-73
2022/06/22 14:04:04;;;;;;;4.53;2.78;;;23.20;98.30;;;;;;5009007;28;20366;-73
2022/06/22 14:07:02;;;;;;;0.13;0.13;;;23.10;99.10;;;;;;5009183;28;20231;-73
2022/06/22 14:10:06;;;;;;;1.35;0.47;;;23.00;99.90;;;;;;5010343;28;20034;-72
2022/06/22 14:12:43;;;;;;;0.47;0.32;;;23.00;99.90;;;;;;5009561;28;20112;-73
2022/06/22 14:15:41;;;;;;;0.52;0.47;;;23.10;99.90;;;;;;5009422;28;20037;-73
2022/06/22 14:18:22;;;;;;;0.10;0.10;;;22.80;99.90;;;;;;5010380;28;20101;-73
2022/06/22 14:21:13;;;;;;;0.90;0.63;;;22.90;99.90;;;;;;5010021;28;20034;-73
2022/06/22 14:23:40;;;;;;;1.40;0.75;;;22.80;99.90;;;;;;5009151;28;20041;-73
2022/06/22 14:26:24;;;;;;;0.90;0.43;;;22.80;99.90;;;;;;5009057;28;20029;-72
2022/06/22 14:29:16;;;;;;;2.30;1.58;;;22.80;99.90;;;;;;5010942;28;20041;-73
2022/06/22 14:32:26;;;;;;;1.55;0.85;;;22.80;99.90;;;;;;5013961;28;20125;-74
2022/06/22 14:35:29;;;;;;;5.82;2.80;;;22.80;99.90;;;;;;5014133;28;20485;-73
2022/06/22 14:38:01;;;;;;;0.82;0.82;;;22.60;99.90;;;;;;5013882;28;20688;-72
2022/06/22 14:40:54;;;;;;;0.25;0.22;;;22.60;99.90;;;;;;5027771;23;20045;-69
2022/06/22 14:43:44;;;;;;;0.10;0.10;;;22.50;99.90;;;;;;4998193;28;20140;-68
2022/06/22 14:46:36;;;;;;;1.73;0.93;;;22.60;99.90;;;;;;4994594;28;20052;-68